Back to top

Rawlins, WY weather

Rawlins Municipal Airport/Harvey Field, Rawlins, WY: 6/04/2020 03:53
Visibility10 statute milesclear sky
View 7-Day Forecast
Area Summary
Sky/CloudsSky Clear
Weather [last 24 hours]None [rain began 14:36; rain ended 15:17 began 15:51; rain ended 17:23 ]
Pressure30.08 in.Hg (1019 hPa)
Dew Point34 °F (1.1 °C)
Relative Humidity38.8 %
Last 24-Hour Precip.Trace
Reading TimePrecipitation
6-hr ending 6/3@17:53Trace
Temperature59 °F (15 °C)red thermometer
Reading TimeMinimum to Maximum Temperature
6-hr ending 6/3@23:5361 °F to 77 °F (16.1 °C to 25 °C)
6-hr ending 6/3@17:5372 °F to 82 °F (22.2 °C to 27.8 °C)
6-hr ending 6/3@11:5355.9 °F to 75.9 °F (13.3 °C to 24.4 °C)
6-hr ending 6/3@05:5355.9 °F to 64 °F (13.3 °C to 17.8 °C)
24-hr ending 6/4@00:5355.9 °F to 82 °F (13.3 °C to 27.8 °C)
Wind11.5 MPH (10 KT) green arrow pointing 247.5 degrees
Wind FromWest/Southwest (240 Degrees)
Rolling 24-hr Peak Wind56.4 MPH (49 KT) on 6/3@15:06
Rolling 24-hr Peak Wind FromWest/Northwest (290 Degrees)
Twilight Begins04:59Sunshine Yesterday
Sunrise05:33N/A
Sunset20:42
Twilight Ends21:16
METARKRWL 040953Z AUTO 24010KT 10SM CLR 15/01 A3008 RMK AO2 SLP082 T01500011
Tags: